Time;durP1;ratioP1;P1;durP2;ratioP2;P2;SDS_P1;SDS_P2;PMS_P1;PMS_P2;Temp;Humidity;BMP_temperature;BMP_pressure;BME280_temperature;BME280_humidity;BME280_pressure;Samples;Min_cycle;Max_cycle;Signal;HPM_P1;HPM_P2
2021/05/01 06:00:28;;;;;;;40.35;27.15;;;;;;;8.07;71.70;100155.17;1736788;78;25762;-64
2021/05/01 06:03:00;;;;;;;38.50;26.02;;;;;;;8.12;71.78;100166.68;1760453;81;26632;-56
2021/05/01 06:05:36;;;;;;;41.13;26.17;;;;;;;8.17;71.84;100167.12;1760417;81;25731;-64
2021/05/01 06:08:05;;;;;;;44.13;26.68;;;;;;;8.21;71.77;100164.89;1760377;81;25626;-64
2021/05/01 06:10:34;;;;;;;35.78;26.40;;;;;;;8.28;71.76;100170.46;1760866;81;25609;-64
2021/05/01 06:13:04;;;;;;;39.60;25.20;;;;;;;8.34;71.88;100167.91;1730136;81;25678;-64
2021/05/01 06:15:32;;;;;;;37.33;25.02;;;;;;;8.43;71.75;100174.26;1755639;81;25704;-64
2021/05/01 06:18:01;;;;;;;36.33;23.60;;;;;;;8.50;71.63;100180.61;1757171;81;25673;-64
2021/05/01 06:20:30;;;;;;;35.60;23.60;;;;;;;8.54;71.38;100187.78;1752530;81;25580;-64
2021/05/01 06:22:56;;;;;;;33.18;22.93;;;;;;;8.57;71.29;100185.06;1723369;83;25639;-65
2021/05/01 06:25:26;;;;;;;31.62;19.62;;;;;;;8.61;71.12;100182.00;1750445;81;25577;-65
2021/05/01 06:27:54;;;;;;;28.98;19.95;;;;;;;8.64;70.95;100180.63;1721760;83;26816;-66
2021/05/01 06:30:23;;;;;;;26.90;18.70;;;;;;;8.65;70.69;100176.81;1780809;80;25635;-65
2021/05/01 06:32:52;;;;;;;27.42;19.50;;;;;;;8.63;70.47;100184.41;1756927;79;25701;-64
2021/05/01 06:35:23;;;;;;;29.85;20.25;;;;;;;8.61;70.35;100186.05;1755652;81;25613;-65
2021/05/01 06:37:53;;;;;;;27.25;20.27;;;;;;;8.63;70.34;100185.75;1755185;81;25579;-64
2021/05/01 06:40:45;;;;;;;24.10;18.15;;;;;;;8.63;70.25;100185.20;1755589;80;25783;-65
2021/05/01 06:43:48;;;;;;;34.35;20.90;;;;;;;8.62;70.19;100190.91;1755581;80;25941;-66
2021/05/01 06:46:17;;;;;;;30.88;19.95;;;;;;;8.65;70.31;100190.30;1756064;81;25684;-62
2021/05/01 06:48:54;;;;;;;27.62;19.65;;;;;;;8.72;70.56;100194.77;1755371;81;25684;-65
2021/05/01 06:51:21;;;;;;;24.92;17.45;;;;;;;8.82;70.44;100198.62;1755520;81;25627;-65
2021/05/01 06:53:51;;;;;;;22.98;17.07;;;;;;;8.87;70.09;100199.05;1757442;81;27583;-65
2021/05/01 06:56:19;;;;;;;24.23;16.70;;;;;;;8.94;70.15;100201.61;1756332;81;25295;-64
2021/05/01 06:58:48;;;;;;;22.80;17.00;;;;;;;9.03;69.88;100199.00;1756462;81;26422;-66
2021/05/01 07:01:18;;;;;;;23.52;17.05;;;;;;;9.08;69.64;100203.51;1751879;81;25677;-57
2021/05/01 07:03:47;;;;;;;22.30;15.68;;;;;;;9.14;69.55;100207.16;1725248;81;25688;-65
2021/05/01 07:06:17;;;;;;;23.50;16.40;;;;;;;9.21;69.31;100213.50;1755088;80;30143;-63
2021/05/01 07:08:45;;;;;;;22.73;15.88;;;;;;;9.25;69.15;100211.78;1747439;81;26091;-65
2021/05/01 07:11:13;;;;;;;22.20;15.72;;;;;;;9.29;68.99;100212.77;1751801;81;25535;-55
2021/05/01 07:13:47;;;;;;;22.10;15.58;;;;;;;9.32;68.84;100213.52;1748747;81;25527;-56
2021/05/01 07:16:14;;;;;;;23.42;16.97;;;;;;;9.36;68.74;100211.01;1723283;81;25718;-56
2021/05/01 07:18:42;;;;;;;22.48;16.15;;;;;;;9.39;68.55;100206.36;1722687;82;25719;-56
2021/05/01 07:21:11;;;;;;;20.25;14.98;;;;;;;9.43;68.50;100211.42;1791465;80;26347;-55
2021/05/01 07:23:38;;;;;;;21.75;16.00;;;;;;;9.48;68.43;100206.44;1764117;80;34797;-56
2021/05/01 07:26:07;;;;;;;22.07;16.73;;;;;;;9.55;68.30;100216.27;1748270;81;26254;-56
2021/05/01 07:28:38;;;;;;;22.70;17.15;;;;;;;9.61;68.45;100211.57;1750587;81;25558;-55
2021/05/01 07:31:10;;;;;;;21.05;15.90;;;;;;;9.69;68.44;100212.99;1745868;81;26605;-56
2021/05/01 07:33:56;;;;;;;21.27;16.62;;;;;;;9.77;68.57;100214.72;1754489;80;25603;-57
2021/05/01 07:36:30;;;;;;;20.92;16.25;;;;;;;9.84;68.58;100217.26;1752841;80;25610;-56
2021/05/01 07:39:01;;;;;;;20.37;15.58;;;;;;;9.91;68.39;100213.58;1761539;80;25544;-55
2021/05/01 07:41:29;;;;;;;23.27;16.55;;;;;;;10.00;68.37;100212.28;1715525;83;25650;-56
2021/05/01 07:43:59;;;;;;;20.15;15.50;;;;;;;10.10;68.30;100218.80;1764384;80;25945;-56
2021/05/01 07:46:29;;;;;;;19.85;16.02;;;;;;;10.22;68.20;100214.19;1753158;80;25629;-56
2021/05/01 07:48:59;;;;;;;23.12;14.95;;;;;;;10.31;67.67;100212.09;1752612;80;25579;-56
2021/05/01 07:51:27;;;;;;;20.52;15.53;;;;;;;10.40;67.42;100212.43;1745332;81;25601;-64
2021/05/01 07:53:54;;;;;;;22.15;15.50;;;;;;;10.48;67.23;100206.81;1750255;81;25646;-65
2021/05/01 07:56:20;;;;;;;20.52;15.55;;;;;;;10.61;67.19;100205.14;1751890;81;25955;-64
2021/05/01 07:58:47;;;;;;;20.85;15.60;;;;;;;10.72;66.81;100211.06;1751632;81;25251;-64
2021/05/01 08:01:14;;;;;;;22.82;15.45;;;;;;;10.84;66.70;100205.32;1752031;81;25636;-66
2021/05/01 08:03:40;;;;;;;22.62;14.85;;;;;;;10.99;66.48;100211.41;1752131;81;25598;-63
2021/05/01 08:06:08;;;;;;;17.90;14.25;;;;;;;11.14;66.31;100208.27;1752026;81;25610;-64
2021/05/01 08:08:36;;;;;;;18.77;14.10;;;;;;;11.22;65.63;100202.65;1752067;81;26582;-64
2021/05/01 08:11:04;;;;;;;20.40;15.35;;;;;;;11.30;65.30;100199.70;1752014;81;25602;-65
2021/05/01 08:13:30;;;;;;;18.87;14.78;;;;;;;11.35;65.14;100207.11;1751677;81;25525;-65
2021/05/01 08:15:57;;;;;;;18.87;14.53;;;;;;;11.43;65.00;100193.92;1728061;81;25554;-65
2021/05/01 08:18:23;;;;;;;18.48;14.15;;;;;;;11.47;64.50;100196.22;1751460;81;25542;-64
2021/05/01 08:20:51;;;;;;;18.92;13.98;;;;;;;11.48;63.98;100197.83;1750347;81;25775;-64
2021/05/01 08:23:18;;;;;;;20.62;14.20;;;;;;;11.49;64.22;100198.88;1751882;81;26305;-63
2021/05/01 08:25:45;;;;;;;17.57;13.28;;;;;;;11.55;64.05;100199.50;1751907;81;25541;-65
2021/05/01 08:28:12;;;;;;;15.85;12.90;;;;;;;11.63;64.01;100200.61;1751850;81;25594;-66
2021/05/01 08:30:39;;;;;;;16.82;12.93;;;;;;;11.69;63.75;100197.99;1751949;81;25506;-66
2021/05/01 08:33:06;;;;;;;18.12;13.22;;;;;;;11.71;63.52;100185.73;1751747;81;25722;-67
2021/05/01 08:35:33;;;;;;;17.25;12.78;;;;;;;11.77;63.49;100191.22;1728494;81;26254;-66
2021/05/01 08:38:00;;;;;;;16.23;12.90;;;;;;;11.86;63.33;100191.78;1752001;81;25628;-66
2021/05/01 08:40:30;;;;;;;15.50;12.13;;;;;;;11.92;63.19;100175.63;1752041;81;25549;-66
2021/05/01 08:42:57;;;;;;;15.05;11.55;;;;;;;12.01;62.97;100170.20;1751923;81;25586;-65
2021/05/01 08:45:27;;;;;;;14.98;11.00;;;;;;;12.05;62.68;100169.78;1774227;80;25737;-66
2021/05/01 08:47:53;;;;;;;13.93;11.48;;;;;;;12.07;62.50;100168.35;1810971;78;25571;-64
2021/05/01 08:50:40;;;;;;;13.83;11.30;;;;;;;12.11;62.28;100175.28;1810569;79;25652;-65
2021/05/01 08:53:08;;;;;;;15.43;11.18;;;;;;;12.09;62.20;100168.03;1810907;79;25623;-65
2021/05/01 08:55:38;;;;;;;12.45;10.72;;;;;;;12.17;62.53;100168.55;1811263;79;25570;-64
2021/05/01 08:58:08;;;;;;;15.30;11.68;;;;;;;12.25;62.48;100171.81;1810876;79;25767;-56
2021/05/01 09:00:40;;;;;;;15.30;11.75;;;;;;;12.34;62.54;100166.36;1810989;79;25556;-56
2021/05/01 09:03:09;;;;;;;18.82;11.65;;;;;;;12.40;62.48;100162.36;1804120;78;25517;-57
2021/05/01 09:05:41;;;;;;;11.60;10.18;;;;;;;12.43;62.47;100164.43;1783905;80;25830;-57
2021/05/01 09:08:10;;;;;;;14.07;11.63;;;;;;;12.49;62.61;100167.75;1752979;81;26201;-57
2021/05/01 09:10:49;;;;;;;17.97;11.83;;;;;;;12.56;62.94;100162.61;1808771;79;25766;-56
2021/05/01 09:13:26;;;;;;;14.03;11.22;;;;;;;12.69;63.09;100158.89;1808304;79;25652;-56
2021/05/01 09:16:06;;;;;;;14.65;11.08;;;;;;;12.82;62.82;100163.05;1806798;79;25590;-55
2021/05/01 09:18:55;;;;;;;15.13;11.03;;;;;;;12.87;62.78;100166.94;1808387;78;25532;-56
2021/05/01 09:21:28;;;;;;;14.05;11.10;;;;;;;12.87;62.33;100174.55;1808397;79;25659;-57
2021/05/01 09:23:55;;;;;;;14.40;10.68;;;;;;;12.89;62.22;100174.22;1784695;79;26028;-65
2021/05/01 09:26:41;;;;;;;13.70;10.60;;;;;;;12.89;62.18;100176.94;1716075;83;25810;-66
2021/05/01 09:29:09;;;;;;;14.18;11.00;;;;;;;12.91;62.46;100178.76;1664217;85;25640;-68
2021/05/01 09:31:45;;;;;;;15.20;11.18;;;;;;;12.94;62.52;100176.75;1674046;84;26019;-68
2021/05/01 09:34:12;;;;;;;18.42;12.37;;;;;;;12.99;62.37;100183.35;1695714;83;25760;-66
2021/05/01 09:36:40;;;;;;;15.75;11.50;;;;;;;12.98;62.31;100188.53;1696444;83;25740;-66
2021/05/01 09:39:14;;;;;;;14.03;11.57;;;;;;;12.95;61.95;100187.83;1670109;84;25683;-66
2021/05/01 09:41:44;;;;;;;12.90;11.03;;;;;;;12.88;61.82;100191.05;1672295;83;26539;-67
2021/05/01 09:44:16;;;;;;;13.30;10.88;;;;;;;12.81;61.60;100189.98;1725861;79;25570;-66
2021/05/01 09:46:47;;;;;;;13.80;10.55;;;;;;;12.73;61.78;100191.59;1779843;79;25644;-66
2021/05/01 09:49:31;;;;;;;13.80;11.43;;;;;;;12.63;61.75;100191.42;1780427;79;25741;-65
2021/05/01 09:52:05;;;;;;;16.73;11.30;;;;;;;12.55;62.17;100192.23;1779190;79;25696;-56
2021/05/01 09:54:38;;;;;;;13.70;10.75;;;;;;;12.47;61.80;100190.34;1779539;79;26335;-55
2021/05/01 09:57:15;;;;;;;15.40;11.18;;;;;;;12.33;61.92;100194.61;1781887;78;25705;-55
2021/05/01 09:59:56;;;;;;;13.65;11.20;;;;;;;12.20;62.25;100193.67;1780147;79;25549;-56
2021/05/01 10:02:35;;;;;;;14.58;11.63;;;;;;;12.10;62.61;100183.16;1781567;78;25771;-55
2021/05/01 10:05:07;;;;;;;16.77;12.78;;;;;;;12.06;63.08;100176.23;1780580;79;25634;-55
2021/05/01 10:07:39;;;;;;;15.75;11.53;;;;;;;12.01;63.24;100178.33;1780028;79;26455;-55
2021/05/01 10:10:07;;;;;;;15.80;12.55;;;;;;;11.94;63.63;100169.33;1756983;79;25811;-55
2021/05/01 10:12:41;;;;;;;13.98;11.80;;;;;;;11.90;64.03;100163.72;1756953;79;25650;-56
2021/05/01 10:15:25;;;;;;;15.55;12.55;;;;;;;11.94;64.46;100166.05;1875479;75;35431;-55
2021/05/01 10:17:52;;;;;;;15.68;12.47;;;;;;;11.85;64.85;100163.07;1775123;78;25965;-55
2021/05/01 10:20:19;;;;;;;17.70;13.50;;;;;;;11.81;64.56;100157.50;1774748;78;25912;-56
2021/05/01 10:22:48;;;;;;;16.97;12.73;;;;;;;11.76;64.80;100158.48;1776580;78;25684;-56
2021/05/01 10:25:28;;;;;;;16.73;13.00;;;;;;;11.71;65.15;100161.35;1778155;78;25780;-56
2021/05/01 10:30:47;;;;;;;15.58;12.03;;;;;;;11.77;65.93;100174.17;1874068;75;35187;-56
2021/05/01 10:33:34;;;;;;;17.02;13.22;;;;;;;11.70;65.97;100173.30;1804557;78;26226;-56
2021/05/01 10:36:29;;;;;;;18.12;13.00;;;;;;;11.69;66.37;100171.69;1791046;78;25800;-56
2021/05/01 10:39:06;;;;;;;16.10;13.80;;;;;;;11.71;66.53;100179.50;1779736;79;25762;-56
2021/05/01 10:41:37;;;;;;;18.25;13.98;;;;;;;11.70;66.83;100181.98;1808751;78;25635;-56
2021/05/01 10:44:07;;;;;;;19.35;14.80;;;;;;;11.68;66.99;100181.48;1789238;78;25664;-55
2021/05/01 10:46:39;;;;;;;18.87;15.05;;;;;;;11.67;66.83;100176.63;1783524;79;25552;-55
2021/05/01 10:49:11;;;;;;;16.20;13.53;;;;;;;11.67;66.96;100173.14;1774286;79;26616;-64
2021/05/01 10:51:44;;;;;;;20.17;15.45;;;;;;;11.67;67.19;100174.49;1808119;78;25623;-64
2021/05/01 10:54:19;;;;;;;20.32;14.98;;;;;;;11.65;67.56;100176.16;1812357;78;25615;-64
2021/05/01 10:56:50;;;;;;;16.12;13.15;;;;;;;11.63;67.49;100176.23;1779026;79;25688;-64
2021/05/01 10:59:23;;;;;;;16.32;13.50;;;;;;;11.64;67.74;100180.54;1780903;79;25867;-64
2021/05/01 11:02:32;;;;;;;15.85;12.93;;;;;;;11.62;67.51;100178.72;1784719;79;25786;-64
2021/05/01 11:05:32;;;;;;;15.75;13.03;;;;;;;11.63;67.70;100181.64;1781690;79;25708;-63
2021/05/01 11:08:24;;;;;;;18.73;12.88;;;;;;;11.61;67.88;100183.31;1781389;79;25301;-64
2021/05/01 11:10:54;;;;;;;19.27;12.82;;;;;;;11.62;67.81;100181.42;1782665;79;25948;-64
2021/05/01 11:13:29;;;;;;;20.05;14.58;;;;;;;11.60;67.63;100181.73;1759754;79;25771;-63
2021/05/01 11:15:59;;;;;;;15.88;12.93;;;;;;;11.56;67.68;100173.45;1789404;79;25705;-64
2021/05/01 11:18:27;;;;;;;17.07;13.50;;;;;;;11.54;67.65;100174.34;1787888;79;25645;-63
2021/05/01 11:20:59;;;;;;;18.32;13.58;;;;;;;11.53;67.94;100175.44;1786114;79;25810;-63
2021/05/01 11:23:30;;;;;;;19.77;14.10;;;;;;;11.56;68.45;100165.86;1788511;79;25675;-63
2021/05/01 11:25:59;;;;;;;16.57;13.15;;;;;;;11.60;68.57;100168.20;1782742;78;26059;-64
2021/05/01 11:28:27;;;;;;;16.45;13.08;;;;;;;11.58;68.29;100161.73;1782985;79;25761;-64
2021/05/01 11:30:56;;;;;;;18.40;13.30;;;;;;;11.57;68.47;100156.07;1776454;79;26137;-64
2021/05/01 11:33:26;;;;;;;20.60;14.50;;;;;;;11.59;68.50;100157.11;1788263;79;25702;-62
2021/05/01 11:35:54;;;;;;;17.55;14.00;;;;;;;11.59;68.57;100149.80;1815186;78;25659;-63
2021/05/01 11:38:29;;;;;;;16.82;13.45;;;;;;;11.61;68.67;100149.45;1803122;78;25680;-63
2021/05/01 11:40:57;;;;;;;17.32;13.28;;;;;;;11.64;68.93;100140.69;1815642;78;25700;-63
2021/05/01 11:43:30;;;;;;;19.00;13.32;;;;;;;11.69;69.15;100138.39;1813590;78;25811;-56
2021/05/01 11:46:10;;;;;;;17.32;13.45;;;;;;;11.78;69.32;100144.58;1809993;78;25674;-56
2021/05/01 11:48:50;;;;;;;16.12;13.40;;;;;;;11.84;69.46;100137.89;1804488;78;25615;-56
2021/05/01 11:51:28;;;;;;;17.00;14.38;;;;;;;11.94;69.43;100134.09;1781173;79;25645;-55
2021/05/01 11:54:07;;;;;;;18.23;13.25;;;;;;;11.98;69.39;100133.67;1780358;79;26306;-56
2021/05/01 11:56:59;;;;;;;16.07;12.23;;;;;;;12.05;69.20;100125.05;1779547;79;25738;-55
2021/05/01 11:59:44;;;;;;;15.75;13.22;;;;;;;12.07;68.87;100126.88;1831103;76;34716;-56
2021/05/01 12:02:15;;;;;;;16.73;12.70;;;;;;;11.99;68.52;100121.72;1808288;77;25965;-56
2021/05/01 12:04:53;;;;;;;17.35;13.30;;;;;;;11.95;68.40;100118.86;1806855;77;26364;-55
2021/05/01 12:07:25;;;;;;;13.70;12.03;;;;;;;11.91;68.21;100111.13;1810899;77;26250;-56
2021/05/01 12:10:11;;;;;;;15.32;11.75;;;;;;;11.92;68.24;100114.65;1778495;79;34931;-56
2021/05/01 12:13:08;;;;;;;17.75;13.40;;;;;;;11.85;68.46;100104.80;1711584;82;25700;-56
2021/05/01 12:15:59;;;;;;;15.55;12.58;;;;;;;11.85;68.62;100096.14;1704638;82;27123;-55
2021/05/01 12:18:44;;;;;;;15.70;12.37;;;;;;;11.84;69.04;100094.53;1749260;80;26341;-56
2021/05/01 12:21:23;;;;;;;15.63;12.07;;;;;;;11.87;69.01;100101.23;1721804;82;25696;-56
2021/05/01 12:23:55;;;;;;;14.78;12.30;;;;;;;11.90;69.07;100103.28;1722441;82;26104;-56
2021/05/01 12:26:39;;;;;;;17.07;13.13;;;;;;;11.89;68.76;100102.49;1720190;82;26111;-57
2021/05/01 12:29:27;;;;;;;15.50;11.88;;;;;;;11.89;68.65;100106.56;1733353;82;26001;-63
2021/05/01 12:32:05;;;;;;;14.05;11.60;;;;;;;11.87;68.42;100102.59;1754827;81;25575;-63
2021/05/01 12:34:54;;;;;;;16.27;12.20;;;;;;;11.82;68.38;100091.92;1723217;82;25827;-63
2021/05/01 12:37:26;;;;;;;16.90;12.55;;;;;;;11.77;68.57;100087.46;1719598;82;25857;-66
2021/05/01 12:40:03;;;;;;;17.05;12.18;;;;;;;11.76;68.61;100086.67;1723925;82;25746;-64
2021/05/01 12:42:33;;;;;;;17.48;13.25;;;;;;;11.73;68.38;100082.43;1720345;82;25954;-64
2021/05/01 12:45:05;;;;;;;15.65;13.03;;;;;;;11.64;68.49;100081.66;1730534;82;25813;-63
2021/05/01 12:47:45;;;;;;;17.82;13.10;;;;;;;11.65;68.65;100084.62;1789969;78;34870;-64
2021/05/01 12:50:19;;;;;;;16.93;13.93;;;;;;;11.52;68.76;100087.16;1742850;80;25626;-64
2021/05/01 12:52:51;;;;;;;14.78;12.73;;;;;;;11.48;69.03;100084.08;1730668;81;26551;-65
2021/05/01 12:55:19;;;;;;;16.40;13.53;;;;;;;11.43;69.39;100081.53;1726900;81;25599;-65
2021/05/01 12:57:47;;;;;;;19.32;14.73;;;;;;;11.31;69.30;100078.89;1762027;80;25649;-63
2021/05/01 13:00:30;;;;;;;16.90;13.85;;;;;;;11.26;69.48;100085.83;1758682;80;26327;-62
2021/05/01 13:03:15;;;;;;;15.18;13.20;;;;;;;11.19;70.04;100086.30;1758166;80;25692;-63
2021/05/01 13:05:45;;;;;;;18.20;14.68;;;;;;;11.13;69.95;100090.27;1760595;80;26419;-64
2021/05/01 13:08:25;;;;;;;18.45;14.70;;;;;;;11.09;70.33;100085.25;1756281;80;25839;-62
2021/05/01 13:10:56;;;;;;;19.37;15.38;;;;;;;11.06;70.82;100082.39;1722499;81;25687;-63
2021/05/01 13:13:34;;;;;;;22.65;15.70;;;;;;;11.00;70.78;100096.08;1759093;80;26196;-62
2021/05/01 13:16:09;;;;;;;22.07;16.23;;;;;;;10.98;71.06;100104.25;1758838;80;26711;-63
2021/05/01 13:19:06;;;;;;;19.52;15.60;;;;;;;10.92;71.37;100109.59;1758894;80;26113;-63
2021/05/01 13:21:50;;;;;;;22.40;17.77;;;;;;;10.84;71.28;100114.68;1723457;81;26291;-63
2021/05/01 13:24:18;;;;;;;18.87;15.28;;;;;;;10.77;71.43;100127.06;1725049;81;25829;-63
2021/05/01 13:26:50;;;;;;;27.02;18.82;;;;;;;10.75;71.68;100131.42;1727354;81;25987;-62
2021/05/01 13:29:18;;;;;;;35.88;26.37;;;;;;;10.68;71.80;100121.63;1724654;81;26230;-62
2021/05/01 13:31:50;;;;;;;24.32;18.62;;;;;;;10.66;72.09;100122.50;1724291;81;25985;-63
2021/05/01 13:34:20;;;;;;;19.67;16.42;;;;;;;10.62;72.29;100116.11;1713731;82;25701;-64
2021/05/01 13:36:48;;;;;;;20.68;15.75;;;;;;;10.61;72.67;100115.31;1733893;81;25865;-59
2021/05/01 13:39:24;;;;;;;18.98;14.70;;;;;;;10.60;72.83;100112.92;1735089;81;25759;-57
2021/05/01 13:42:14;;;;;;;20.68;16.90;;;;;;;10.57;72.85;100108.13;1738146;81;26085;-55
2021/05/01 13:44:53;;;;;;;23.90;15.48;;;;;;;10.50;72.99;100101.83;1736536;81;26587;-57
2021/05/01 13:47:43;;;;;;;23.20;16.67;;;;;;;10.46;73.50;100096.25;1736388;81;25789;-58
2021/05/01 13:50:22;;;;;;;;;;;;;;;10.43;73.73;100104.19;1738659;81;26313;-59
2021/05/01 13:52:52;;;;;;;24.65;16.20;;;;;;;10.38;74.03;100103.77;1738421;81;25773;-58
2021/05/01 13:55:38;;;;;;;23.55;16.82;;;;;;;10.35;74.26;100114.41;1734785;81;25693;-59
2021/05/01 13:58:13;;;;;;;21.35;16.57;;;;;;;10.33;74.47;100125.53;1736998;81;27460;-58
2021/05/01 14:00:46;;;;;;;20.48;14.78;;;;;;;10.28;74.58;100125.11;1760142;80;26290;-58
2021/05/01 14:03:23;;;;;;;22.37;16.02;;;;;;;10.29;74.88;100129.95;1723478;81;25646;-58
2021/05/01 14:05:54;;;;;;;20.27;16.42;;;;;;;10.28;75.04;100130.52;1725856;81;25759;-58
2021/05/01 14:08:21;;;;;;;22.25;17.25;;;;;;;10.29;75.37;100128.03;1725433;81;25654;-58
2021/05/01 14:10:51;;;;;;;21.55;17.40;;;;;;;10.31;75.56;100119.61;1761512;80;26455;-58
2021/05/01 14:13:22;;;;;;;23.20;18.50;;;;;;;10.33;75.64;100124.74;1758111;80;25738;-58
2021/05/01 14:15:58;;;;;;;29.00;21.17;;;;;;;10.35;75.80;100121.17;1761610;80;26270;-58
2021/05/01 14:18:27;;;;;;;23.15;18.10;;;;;;;10.37;76.01;100123.82;1757790;80;25817;-58
2021/05/01 14:21:10;;;;;;;20.25;17.00;;;;;;;10.37;76.12;100118.41;1724945;81;25686;-58
2021/05/01 14:23:39;;;;;;;26.07;17.45;;;;;;;10.41;76.30;100123.43;1761398;80;25772;-58
2021/05/01 14:26:16;;;;;;;21.97;16.87;;;;;;;10.40;76.27;100117.80;1728018;81;26343;-58
2021/05/01 14:28:42;;;;;;;24.05;18.55;;;;;;;10.38;76.22;100114.58;1762166;80;25759;-58
2021/05/01 14:31:19;;;;;;;25.20;17.92;;;;;;;10.40;76.24;100113.73;1731572;81;25631;-59
2021/05/01 14:33:55;;;;;;;24.30;18.70;;;;;;;10.40;76.19;100108.86;1729692;81;25810;-58
2021/05/01 14:36:22;;;;;;;24.12;18.77;;;;;;;10.39;76.34;100108.64;1759014;80;25896;-58
2021/05/01 14:38:49;;;;;;;27.62;20.20;;;;;;;10.36;76.26;100107.34;1730558;81;25735;-62
2021/05/01 14:41:23;;;;;;;25.40;19.87;;;;;;;10.37;76.38;100110.30;1762853;80;25813;-64
2021/05/01 14:43:50;;;;;;;25.90;20.02;;;;;;;10.37;76.36;100099.48;1758494;80;26457;-62
2021/05/01 14:46:25;;;;;;;26.73;20.65;;;;;;;10.36;76.41;100093.83;1756245;80;25737;-59
2021/05/01 14:49:18;;;;;;;26.33;21.42;;;;;;;10.36;76.58;100091.13;1726648;82;26313;-61
2021/05/01 14:52:07;;;;;;;27.30;19.92;;;;;;;10.33;76.52;100086.89;1725972;82;25643;-62
2021/05/01 14:54:39;;;;;;;29.32;21.48;;;;;;;10.33;76.76;100082.27;1725479;82;25813;-62
2021/05/01 14:57:14;;;;;;;28.98;21.05;;;;;;;10.36;76.92;100065.44;1727333;82;25699;-61
2021/05/01 14:59:46;;;;;;;26.60;20.88;;;;;;;10.38;77.09;100059.16;1727088;82;25694;-61
2021/05/01 15:02:25;;;;;;;27.13;20.92;;;;;;;10.41;77.07;100055.83;1726205;82;25784;-58
2021/05/01 15:05:22;;;;;;;26.40;21.15;;;;;;;10.43;77.22;100054.17;1726783;82;25721;-58
2021/05/01 15:07:56;;;;;;;29.37;22.93;;;;;;;10.47;77.31;100057.83;1704124;82;25527;-58
2021/05/01 15:10:31;;;;;;;30.97;20.70;;;;;;;10.50;77.39;100064.53;1728341;82;26063;-57
2021/05/01 15:13:09;;;;;;;28.92;20.52;;;;;;;10.56;77.47;100066.78;1728102;82;25573;-58
2021/05/01 15:15:49;;;;;;;27.85;21.10;;;;;;;10.61;77.40;100064.49;1730036;82;25818;-58
2021/05/01 15:18:23;;;;;;;27.73;21.23;;;;;;;10.64;77.40;100060.60;1729145;82;26049;-58
2021/05/01 15:20:57;;;;;;;25.00;20.20;;;;;;;10.70;77.49;100055.05;1728575;82;25725;-58
2021/05/01 15:23:39;;;;;;;28.57;22.10;;;;;;;10.75;77.51;100064.36;1728903;82;26258;-58
2021/05/01 15:26:20;;;;;;;45.23;29.48;;;;;;;10.80;77.46;100053.39;1728477;82;25973;-57
2021/05/01 15:28:50;;;;;;;30.70;21.75;;;;;;;10.85;77.45;100046.47;1728583;82;25790;-58
2021/05/01 15:31:26;;;;;;;28.77;20.40;;;;;;;10.86;77.12;100038.58;1727639;82;25841;-58
2021/05/01 15:33:54;;;;;;;26.93;20.25;;;;;;;10.88;77.06;100039.62;1728669;82;25675;-58
2021/05/01 15:36:23;;;;;;;28.65;20.92;;;;;;;10.88;77.08;100036.38;1726933;82;25683;-58
2021/05/01 15:38:50;;;;;;;26.30;20.20;;;;;;;10.88;76.85;100034.20;1728673;82;26390;-58
2021/05/01 15:41:20;;;;;;;28.90;21.10;;;;;;;10.87;76.79;100027.22;1729664;82;25729;-58
2021/05/01 15:43:48;;;;;;;26.57;20.70;;;;;;;10.86;76.76;100022.34;1727277;82;25985;-57
2021/05/01 15:46:19;;;;;;;28.50;21.77;;;;;;;10.82;76.45;100014.06;1727526;82;26492;-58
2021/05/01 15:48:48;;;;;;;25.80;20.50;;;;;;;10.81;76.62;100014.38;1720826;83;26209;-58
2021/05/01 15:51:16;;;;;;;27.30;21.20;;;;;;;10.79;76.78;100010.64;1731865;82;26479;-58
2021/05/01 15:53:43;;;;;;;30.25;21.95;;;;;;;10.81;76.92;100024.67;1730852;82;25723;-58
2021/05/01 15:56:11;;;;;;;27.10;19.80;;;;;;;10.79;76.57;100026.87;1731223;82;25679;-58
2021/05/01 15:58:38;;;;;;;26.82;21.82;;;;;;;10.77;76.69;100025.05;1707971;82;25707;-58
2021/05/01 16:01:05;;;;;;;25.08;19.80;;;;;;;10.76;76.77;100028.06;1727176;82;25695;-58
2021/05/01 16:03:34;;;;;;;26.82;21.30;;;;;;;10.75;76.72;100024.56;1730486;82;25265;-58
2021/05/01 16:06:01;;;;;;;26.33;21.02;;;;;;;10.74;76.80;100025.67;1730371;82;25960;-58
2021/05/01 16:08:29;;;;;;;27.20;21.10;;;;;;;10.73;76.68;100018.69;1729010;82;25640;-57
2021/05/01 16:10:56;;;;;;;25.82;20.55;;;;;;;10.70;76.68;100007.70;1730903;82;26489;-59
2021/05/01 16:13:22;;;;;;;27.40;20.23;;;;;;;10.65;76.60;100014.84;1703376;82;25691;-58
2021/05/01 16:15:50;;;;;;;25.68;20.23;;;;;;;10.62;76.67;100007.38;1729750;81;25723;-57
2021/05/01 16:18:16;;;;;;;29.23;22.05;;;;;;;10.61;76.77;100015.24;1732080;81;25782;-58
2021/05/01 16:20:44;;;;;;;28.27;21.00;;;;;;;10.59;76.82;100015.30;1731786;82;26321;-59
2021/05/01 16:23:11;;;;;;;29.92;21.55;;;;;;;10.58;76.76;100017.78;1698328;83;25709;-58
2021/05/01 16:25:38;;;;;;;29.12;21.12;;;;;;;10.54;76.67;100006.80;1639053;87;25905;-58
2021/05/01 16:28:06;;;;;;;28.90;22.62;;;;;;;10.52;76.62;100012.27;1636144;85;25754;-57
2021/05/01 16:30:35;;;;;;;31.33;23.40;;;;;;;10.50;76.88;100018.56;1638759;85;26191;-58
2021/05/01 16:33:02;;;;;;;34.23;24.67;;;;;;;10.47;76.90;100013.21;1635887;87;26555;-58
2021/05/01 16:35:29;;;;;;;33.35;24.72;;;;;;;10.44;77.09;100011.95;1635962;87;26114;-57
2021/05/01 16:37:55;;;;;;;34.43;25.52;;;;;;;10.39;77.04;100014.02;1631658;87;25822;-57
2021/05/01 16:40:23;;;;;;;34.80;25.27;;;;;;;10.36;77.17;100004.61;1632955;87;25922;-57
2021/05/01 16:42:49;;;;;;;35.33;26.35;;;;;;;10.32;77.07;99997.43;1638593;83;25743;-59
2021/05/01 16:45:18;;;;;;;37.30;26.45;;;;;;;10.28;77.34;99991.83;1716241;83;25995;-57
2021/05/01 16:47:50;;;;;;;35.35;26.10;;;;;;;10.26;77.36;99986.73;1716593;83;25646;-57
2021/05/01 16:50:17;;;;;;;36.48;26.37;;;;;;;10.24;77.61;99981.41;1692220;83;25962;-58
2021/05/01 16:52:44;;;;;;;36.48;27.37;;;;;;;10.20;77.59;99983.13;1738988;81;25691;-63
2021/05/01 16:55:14;;;;;;;34.85;25.65;;;;;;;10.20;77.60;99989.89;1740592;81;25963;-65
2021/05/01 16:57:41;;;;;;;;;;;;;;;10.19;77.78;99991.81;1741668;81;25635;-65
2021/05/01 17:00:09;;;;;;;34.85;25.77;;;;;;;10.17;77.81;99990.55;1702639;82;25632;-63
2021/05/01 17:02:36;;;;;;;35.70;25.55;;;;;;;10.12;77.69;100008.25;1730134;82;26634;-63
2021/05/01 17:05:06;;;;;;;35.05;25.30;;;;;;;10.06;77.69;100013.80;1740890;81;25688;-63
2021/05/01 17:07:32;;;;;;;34.45;26.15;;;;;;;10.04;77.86;100020.61;1743013;81;25891;-62
2021/05/01 17:09:59;;;;;;;34.20;25.20;;;;;;;10.01;77.82;100017.98;1740452;81;26217;-63
2021/05/01 17:12:25;;;;;;;39.40;27.82;;;;;;;9.99;77.83;100004.53;1741677;81;25633;-62
2021/05/01 17:14:53;;;;;;;44.90;32.67;;;;;;;9.96;77.89;100018.12;1721658;81;26478;-63
2021/05/01 17:17:19;;;;;;;70.72;49.83;;;;;;;9.95;78.05;100019.22;1737811;81;26297;-64
2021/05/01 17:19:46;;;;;;;49.98;34.38;;;;;;;9.92;77.99;100013.08;1740651;81;26318;-63
2021/05/01 17:22:15;;;;;;;36.88;27.02;;;;;;;9.89;78.05;100011.81;1720238;81;25833;-63
2021/05/01 17:24:42;;;;;;;36.93;25.87;;;;;;;9.88;78.14;100013.47;1740910;81;25687;-62
2021/05/01 17:27:09;;;;;;;34.73;25.85;;;;;;;9.86;78.17;100021.09;1734176;81;25799;-63
2021/05/01 17:29:35;;;;;;;33.98;25.43;;;;;;;9.85;78.12;100013.52;1731082;82;25658;-61
2021/05/01 17:32:05;;;;;;;37.05;26.12;;;;;;;9.83;78.19;100011.70;1703550;82;26051;-56
2021/05/01 17:34:32;;;;;;;34.58;25.85;;;;;;;9.80;78.20;100019.06;1704053;82;26618;-55
2021/05/01 17:36:59;;;;;;;36.10;26.90;;;;;;;9.76;78.19;100017.31;1710534;82;25632;-57
2021/05/01 17:39:26;;;;;;;37.45;27.27;;;;;;;9.71;78.31;100013.62;1744815;80;25650;-57